sensor_id;sensor_type;location;lat;lon;timestamp;pressure;altitude;pressure_sealevel;temperature;humidity
41040;BME280;48586;50.122;18.972;2023-12-20T00:01:55;98100.63;;;5.14;33.42
41040;BME280;48586;50.122;18.972;2023-12-20T00:05:00;98101.47;;;5.14;33.73
41040;BME280;48586;50.122;18.972;2023-12-20T00:08:09;98086.97;;;5.19;33.58
41040;BME280;48586;50.122;18.972;2023-12-20T00:11:16;98089.88;;;5.15;33.40
41040;BME280;48586;50.122;18.972;2023-12-20T00:14:25;98069.97;;;5.21;33.43
41040;BME280;48586;50.122;18.972;2023-12-20T00:17:31;98063.94;;;5.19;32.74
41040;BME280;48586;50.122;18.972;2023-12-20T00:20:36;98063.59;;;5.12;32.98
41040;BME280;48586;50.122;18.972;2023-12-20T00:23:43;98069.53;;;5.05;32.85
41040;BME280;48586;50.122;18.972;2023-12-20T00:26:49;98064.94;;;5.07;33.27
41040;BME280;48586;50.122;18.972;2023-12-20T00:29:58;98046.09;;;5.10;32.77
41040;BME280;48586;50.122;18.972;2023-12-20T00:33:04;98059.25;;;5.11;32.55
41040;BME280;48586;50.122;18.972;2023-12-20T00:36:10;98046.22;;;5.08;32.78
41040;BME280;48586;50.122;18.972;2023-12-20T00:39:15;98056.72;;;5.10;32.56
41040;BME280;48586;50.122;18.972;2023-12-20T00:42:21;98062.03;;;5.10;32.70
41040;BME280;48586;50.122;18.972;2023-12-20T00:45:28;98041.53;;;5.12;32.71
41040;BME280;48586;50.122;18.972;2023-12-20T00:48:33;98036.59;;;5.07;32.57
41040;BME280;48586;50.122;18.972;2023-12-20T00:51:39;98032.72;;;5.11;32.82
41040;BME280;48586;50.122;18.972;2023-12-20T00:54:45;98041.88;;;5.07;32.72
41040;BME280;48586;50.122;18.972;2023-12-20T00:57:52;98019.50;;;5.00;32.95
41040;BME280;48586;50.122;18.972;2023-12-20T01:01:01;98029.38;;;4.98;32.85
41040;BME280;48586;50.122;18.972;2023-12-20T01:04:06;98017.78;;;4.99;32.66
41040;BME280;48586;50.122;18.972;2023-12-20T01:07:12;98012.16;;;4.93;33.02
41040;BME280;48586;50.122;18.972;2023-12-20T01:10:17;98010.97;;;4.85;33.12
41040;BME280;48586;50.122;18.972;2023-12-20T01:13:23;97982.75;;;4.84;33.25
41040;BME280;48586;50.122;18.972;2023-12-20T01:16:31;98004.25;;;4.81;33.11
41040;BME280;48586;50.122;18.972;2023-12-20T01:19:37;97987.16;;;4.63;33.37
41040;BME280;48586;50.122;18.972;2023-12-20T01:22:43;97955.31;;;4.74;33.15
41040;BME280;48586;50.122;18.972;2023-12-20T01:25:51;97985.19;;;4.76;33.45
41040;BME280;48586;50.122;18.972;2023-12-20T01:28:56;97958.34;;;4.70;33.14
41040;BME280;48586;50.122;18.972;2023-12-20T01:32:06;97952.41;;;4.77;32.96
41040;BME280;48586;50.122;18.972;2023-12-20T01:35:13;97957.50;;;4.69;33.27
41040;BME280;48586;50.122;18.972;2023-12-20T01:38:19;97943.38;;;4.80;33.44
41040;BME280;48586;50.122;18.972;2023-12-20T01:41:26;97963.13;;;4.76;32.97
41040;BME280;48586;50.122;18.972;2023-12-20T01:44:32;97949.69;;;4.89;33.22
41040;BME280;48586;50.122;18.972;2023-12-20T01:47:41;97949.50;;;4.80;33.25
41040;BME280;48586;50.122;18.972;2023-12-20T01:50:48;97951.38;;;4.69;33.05
41040;BME280;48586;50.122;18.972;2023-12-20T01:53:56;97942.75;;;4.76;33.19
41040;BME280;48586;50.122;18.972;2023-12-20T01:57:06;97947.00;;;4.79;33.33
41040;BME280;48586;50.122;18.972;2023-12-20T02:00:13;97950.66;;;4.55;33.15
41040;BME280;48586;50.122;18.972;2023-12-20T02:03:23;97926.88;;;4.65;33.25
41040;BME280;48586;50.122;18.972;2023-12-20T02:06:31;97957.91;;;4.53;33.39
41040;BME280;48586;50.122;18.972;2023-12-20T02:09:40;97931.69;;;4.71;33.28
41040;BME280;48586;50.122;18.972;2023-12-20T02:12:45;97949.16;;;4.74;33.17
41040;BME280;48586;50.122;18.972;2023-12-20T02:15:52;97935.56;;;4.67;33.46
41040;BME280;48586;50.122;18.972;2023-12-20T02:19:04;97953.53;;;4.64;33.66
41040;BME280;48586;50.122;18.972;2023-12-20T02:22:20;97920.63;;;4.66;33.50
41040;BME280;48586;50.122;18.972;2023-12-20T02:25:26;97935.69;;;4.66;33.40
41040;BME280;48586;50.122;18.972;2023-12-20T02:28:32;97922.81;;;4.61;33.46
41040;BME280;48586;50.122;18.972;2023-12-20T02:31:39;97947.78;;;4.59;33.78
41040;BME280;48586;50.122;18.972;2023-12-20T02:34:46;97942.84;;;4.54;34.16
41040;BME280;48586;50.122;18.972;2023-12-20T02:37:56;97939.97;;;4.57;34.41
41040;BME280;48586;50.122;18.972;2023-12-20T02:41:01;97935.94;;;4.63;34.11
41040;BME280;48586;50.122;18.972;2023-12-20T02:44:06;97930.81;;;4.50;34.48
41040;BME280;48586;50.122;18.972;2023-12-20T02:47:11;97932.63;;;4.49;34.66
41040;BME280;48586;50.122;18.972;2023-12-20T02:50:16;97924.66;;;4.49;35.41
41040;BME280;48586;50.122;18.972;2023-12-20T02:53:23;97943.47;;;4.46;36.05
41040;BME280;48586;50.122;18.972;2023-12-20T02:56:28;97930.56;;;4.42;37.23
41040;BME280;48586;50.122;18.972;2023-12-20T02:59:33;97929.66;;;4.20;37.08
41040;BME280;48586;50.122;18.972;2023-12-20T03:02:38;97919.66;;;4.13;37.62
41040;BME280;48586;50.122;18.972;2023-12-20T03:05:42;97925.94;;;4.01;37.35
41040;BME280;48586;50.122;18.972;2023-12-20T03:08:52;97921.75;;;3.87;38.41
41040;BME280;48586;50.122;18.972;2023-12-20T03:11:56;97930.88;;;3.60;39.08
41040;BME280;48586;50.122;18.972;2023-12-20T03:15:03;97938.94;;;3.48;43.77
41040;BME280;48586;50.122;18.972;2023-12-20T03:18:07;97950.94;;;2.94;48.55
41040;BME280;48586;50.122;18.972;2023-12-20T03:21:15;97951.78;;;2.23;55.85
41040;BME280;48586;50.122;18.972;2023-12-20T03:24:22;97942.81;;;1.76;59.06
41040;BME280;48586;50.122;18.972;2023-12-20T03:27:28;97944.41;;;1.41;62.24
41040;BME280;48586;50.122;18.972;2023-12-20T03:30:32;97944.47;;;1.01;60.81
41040;BME280;48586;50.122;18.972;2023-12-20T03:33:37;97940.22;;;0.86;64.26
41040;BME280;48586;50.122;18.972;2023-12-20T03:36:42;97932.53;;;0.56;66.43
41040;BME280;48586;50.122;18.972;2023-12-20T03:39:52;97943.13;;;0.41;68.32
41040;BME280;48586;50.122;18.972;2023-12-20T03:42:56;97951.28;;;0.24;69.26
41040;BME280;48586;50.122;18.972;2023-12-20T03:46:03;97951.28;;;0.10;71.91
41040;BME280;48586;50.122;18.972;2023-12-20T03:49:07;97956.03;;;0.05;73.44
41040;BME280;48586;50.122;18.972;2023-12-20T03:52:13;97953.69;;;0.00;73.03
41040;BME280;48586;50.122;18.972;2023-12-20T03:55:20;97965.97;;;-0.00;73.10
41040;BME280;48586;50.122;18.972;2023-12-20T03:58:25;97957.06;;;-0.12;72.76
41040;BME280;48586;50.122;18.972;2023-12-20T04:01:29;59075.00;;;-149.39;100.00
41040;BME280;48586;50.122;18.972;2023-12-20T04:04:35;59075.00;;;-149.39;100.00
41040;BME280;48586;50.122;18.972;2023-12-20T04:07:39;59075.00;;;-149.39;100.00
41040;BME280;48586;50.122;18.972;2023-12-20T04:10:47;59075.00;;;-149.39;100.00
41040;BME280;48586;50.122;18.972;2023-12-20T04:13:52;59075.00;;;-149.39;100.00
41040;BME280;48586;50.122;18.972;2023-12-20T04:16:57;59075.00;;;-149.39;100.00
41040;BME280;48586;50.122;18.972;2023-12-20T04:20:04;59075.00;;;-149.39;100.00
41040;BME280;48586;50.122;18.972;2023-12-20T04:23:12;59075.00;;;-149.39;100.00
41040;BME280;48586;50.122;18.972;2023-12-20T04:26:20;59075.00;;;-149.39;100.00
41040;BME280;48586;50.122;18.972;2023-12-20T04:29:26;59075.00;;;-149.39;100.00
41040;BME280;48586;50.122;18.972;2023-12-20T04:32:30;59075.00;;;-149.39;100.00
41040;BME280;48586;50.122;18.972;2023-12-20T04:35:36;59075.00;;;-149.39;100.00
41040;BME280;48586;50.122;18.972;2023-12-20T04:38:42;59075.00;;;-149.39;100.00
41040;BME280;48586;50.122;18.972;2023-12-20T04:41:50;59075.00;;;-149.39;100.00
41040;BME280;48586;50.122;18.972;2023-12-20T04:44:55;59075.00;;;-149.39;100.00
41040;BME280;48586;50.122;18.972;2023-12-20T04:48:02;59075.00;;;-149.39;100.00
41040;BME280;48586;50.122;18.972;2023-12-20T04:51:07;59075.00;;;-149.39;100.00
41040;BME280;48586;50.122;18.972;2023-12-20T04:54:12;59075.00;;;-149.39;100.00
41040;BME280;48586;50.122;18.972;2023-12-20T04:57:19;59075.00;;;-149.39;100.00
41040;BME280;48586;50.122;18.972;2023-12-20T05:00:25;59075.00;;;-149.39;100.00
41040;BME280;48586;50.122;18.972;2023-12-20T05:03:31;59075.00;;;-149.39;100.00
41040;BME280;48586;50.122;18.972;2023-12-20T05:06:37;59075.00;;;-149.39;100.00
41040;BME280;48586;50.122;18.972;2023-12-20T05:09:42;59075.00;;;-149.39;100.00
41040;BME280;48586;50.122;18.972;2023-12-20T05:12:51;59075.00;;;-149.39;100.00
41040;BME280;48586;50.122;18.972;2023-12-20T05:15:56;59075.00;;;-149.39;100.00
41040;BME280;48586;50.122;18.972;2023-12-20T05:19:01;59075.00;;;-149.39;100.00
41040;BME280;48586;50.122;18.972;2023-12-20T05:22:07;59075.00;;;-149.39;100.00
41040;BME280;48586;50.122;18.972;2023-12-20T05:25:12;59075.00;;;-149.39;100.00
41040;BME280;48586;50.122;18.972;2023-12-20T05:28:20;59075.00;;;-149.39;100.00
41040;BME280;48586;50.122;18.972;2023-12-20T05:31:25;59075.00;;;-149.39;100.00
41040;BME280;48586;50.122;18.972;2023-12-20T05:34:29;59075.00;;;-149.39;100.00
41040;BME280;48586;50.122;18.972;2023-12-20T05:37:35;59075.00;;;-149.39;100.00
41040;BME280;48586;50.122;18.972;2023-12-20T05:40:39;59075.00;;;-149.39;100.00
41040;BME280;48586;50.122;18.972;2023-12-20T05:43:47;59075.00;;;-149.39;100.00
41040;BME280;48586;50.122;18.972;2023-12-20T05:46:51;59075.00;;;-149.39;100.00
41040;BME280;48586;50.122;18.972;2023-12-20T05:49:57;59075.00;;;-149.39;100.00
41040;BME280;48586;50.122;18.972;2023-12-20T05:53:02;59075.00;;;-149.39;100.00
41040;BME280;48586;50.122;18.972;2023-12-20T05:56:08;59075.00;;;-149.39;100.00
41040;BME280;48586;50.122;18.972;2023-12-20T05:59:17;59075.00;;;-149.39;100.00
41040;BME280;48586;50.122;18.972;2023-12-20T06:02:23;59075.00;;;-149.39;100.00
41040;BME280;48586;50.122;18.972;2023-12-20T06:05:29;59075.00;;;-149.39;100.00
41040;BME280;48586;50.122;18.972;2023-12-20T06:08:36;59075.00;;;-149.39;100.00
41040;BME280;48586;50.122;18.972;2023-12-20T06:11:42;59075.00;;;-149.39;100.00
41040;BME280;48586;50.122;18.972;2023-12-20T06:14:51;59075.00;;;-149.39;100.00
41040;BME280;48586;50.122;18.972;2023-12-20T06:17:58;59075.00;;;-149.39;100.00
41040;BME280;48586;50.122;18.972;2023-12-20T06:21:04;59075.00;;;-149.39;100.00
41040;BME280;48586;50.122;18.972;2023-12-20T06:24:09;59075.00;;;-149.39;100.00
41040;BME280;48586;50.122;18.972;2023-12-20T06:27:16;59075.00;;;-149.39;100.00
41040;BME280;48586;50.122;18.972;2023-12-20T06:30:24;59075.00;;;-149.39;100.00
41040;BME280;48586;50.122;18.972;2023-12-20T06:33:31;59075.00;;;-149.39;100.00
41040;BME280;48586;50.122;18.972;2023-12-20T06:36:37;59075.00;;;-149.39;100.00
41040;BME280;48586;50.122;18.972;2023-12-20T06:39:43;59075.00;;;-149.39;100.00
41040;BME280;48586;50.122;18.972;2023-12-20T06:42:50;59075.00;;;-149.39;100.00
41040;BME280;48586;50.122;18.972;2023-12-20T06:46:00;59075.00;;;-149.39;100.00
41040;BME280;48586;50.122;18.972;2023-12-20T06:49:06;59075.00;;;-149.39;100.00
41040;BME280;48586;50.122;18.972;2023-12-20T06:52:13;59075.00;;;-149.39;100.00
41040;BME280;48586;50.122;18.972;2023-12-20T06:55:18;59075.00;;;-149.39;100.00
41040;BME280;48586;50.122;18.972;2023-12-20T06:58:24;59075.00;;;-149.39;100.00
41040;BME280;48586;50.122;18.972;2023-12-20T07:01:32;59075.00;;;-149.39;100.00
41040;BME280;48586;50.122;18.972;2023-12-20T07:04:40;59075.00;;;-149.39;100.00
41040;BME280;48586;50.122;18.972;2023-12-20T07:07:46;59075.00;;;-149.39;100.00
41040;BME280;48586;50.122;18.972;2023-12-20T07:10:52;59075.00;;;-149.39;100.00
41040;BME280;48586;50.122;18.972;2023-12-20T07:13:58;59075.00;;;-149.39;100.00
41040;BME280;48586;50.122;18.972;2023-12-20T07:17:06;59075.00;;;-149.39;100.00
41040;BME280;48586;50.122;18.972;2023-12-20T07:20:14;59075.00;;;-149.39;100.00
41040;BME280;48586;50.122;18.972;2023-12-20T07:23:20;59075.00;;;-149.39;100.00
41040;BME280;48586;50.122;18.972;2023-12-20T07:26:27;59075.00;;;-149.39;100.00
41040;BME280;48586;50.122;18.972;2023-12-20T07:29:34;59075.00;;;-149.39;100.00
41040;BME280;48586;50.122;18.972;2023-12-20T07:32:42;59075.00;;;-149.39;100.00
41040;BME280;48586;50.122;18.972;2023-12-20T07:35:49;59075.00;;;-149.39;100.00
41040;BME280;48586;50.122;18.972;2023-12-20T07:38:54;59075.00;;;-149.39;100.00
41040;BME280;48586;50.122;18.972;2023-12-20T07:42:02;59075.00;;;-149.39;100.00
41040;BME280;48586;50.122;18.972;2023-12-20T07:45:08;59075.00;;;-149.39;100.00
41040;BME280;48586;50.122;18.972;2023-12-20T07:48:17;59075.00;;;-149.39;100.00
41040;BME280;48586;50.122;18.972;2023-12-20T07:51:24;59075.00;;;-149.39;100.00
41040;BME280;48586;50.122;18.972;2023-12-20T07:54:30;59075.00;;;-149.39;100.00
41040;BME280;48586;50.122;18.972;2023-12-20T07:57:35;59075.00;;;-149.39;100.00
41040;BME280;48586;50.122;18.972;2023-12-20T08:00:42;59075.00;;;-149.39;100.00
41040;BME280;48586;50.122;18.972;2023-12-20T08:03:51;59075.00;;;-149.39;100.00
41040;BME280;48586;50.122;18.972;2023-12-20T08:06:59;59075.00;;;-149.39;100.00
41040;BME280;48586;50.122;18.972;2023-12-20T08:10:06;59075.00;;;-149.39;100.00
41040;BME280;48586;50.122;18.972;2023-12-20T08:13:12;59075.00;;;-149.39;100.00
41040;BME280;48586;50.122;18.972;2023-12-20T08:16:17;59075.00;;;-149.39;100.00
41040;BME280;48586;50.122;18.972;2023-12-20T08:19:26;59075.00;;;-149.39;100.00
41040;BME280;48586;50.122;18.972;2023-12-20T08:22:32;59075.00;;;-149.39;100.00
41040;BME280;48586;50.122;18.972;2023-12-20T08:25:39;59075.00;;;-149.39;100.00
41040;BME280;48586;50.122;18.972;2023-12-20T08:28:45;59075.00;;;-149.39;100.00
41040;BME280;48586;50.122;18.972;2023-12-20T08:31:53;59075.00;;;-149.39;100.00
41040;BME280;48586;50.122;18.972;2023-12-20T08:35:02;59075.00;;;-149.39;100.00
41040;BME280;48586;50.122;18.972;2023-12-20T08:38:10;59075.00;;;-149.39;100.00
41040;BME280;48586;50.122;18.972;2023-12-20T08:41:16;59075.00;;;-149.39;100.00
41040;BME280;48586;50.122;18.972;2023-12-20T08:44:24;59075.00;;;-149.39;100.00
41040;BME280;48586;50.122;18.972;2023-12-20T08:47:30;59075.00;;;-149.39;100.00
41040;BME280;48586;50.122;18.972;2023-12-20T08:50:38;59075.00;;;-149.39;100.00
41040;BME280;48586;50.122;18.972;2023-12-20T08:53:45;59075.00;;;-149.39;100.00
41040;BME280;48586;50.122;18.972;2023-12-20T08:56:52;59075.00;;;-149.39;100.00
41040;BME280;48586;50.122;18.972;2023-12-20T08:59:58;59075.00;;;-149.39;100.00
41040;BME280;48586;50.122;18.972;2023-12-20T09:03:04;59075.00;;;-149.39;100.00
41040;BME280;48586;50.122;18.972;2023-12-20T09:06:13;59075.00;;;-149.39;100.00
41040;BME280;48586;50.122;18.972;2023-12-20T09:09:19;59075.00;;;-149.39;100.00
41040;BME280;48586;50.122;18.972;2023-12-20T09:12:27;59075.00;;;-149.39;100.00
41040;BME280;48586;50.122;18.972;2023-12-20T09:15:33;59075.00;;;-149.39;100.00
41040;BME280;48586;50.122;18.972;2023-12-20T09:18:39;59075.00;;;-149.39;100.00
41040;BME280;48586;50.122;18.972;2023-12-20T09:21:48;59075.00;;;-149.39;100.00
41040;BME280;48586;50.122;18.972;2023-12-20T09:24:54;59075.00;;;-149.39;100.00
41040;BME280;48586;50.122;18.972;2023-12-20T09:28:00;59075.00;;;-149.39;100.00
41040;BME280;48586;50.122;18.972;2023-12-20T09:31:04;59075.00;;;-149.39;100.00
41040;BME280;48586;50.122;18.972;2023-12-20T09:34:11;59075.00;;;-149.39;100.00
41040;BME280;48586;50.122;18.972;2023-12-20T09:37:21;59075.00;;;-149.39;100.00
41040;BME280;48586;50.122;18.972;2023-12-20T09:40:29;59075.00;;;-149.39;100.00
41040;BME280;48586;50.122;18.972;2023-12-20T09:43:41;59075.00;;;-149.39;100.00
41040;BME280;48586;50.122;18.972;2023-12-20T09:46:50;59075.00;;;-149.39;100.00
41040;BME280;48586;50.122;18.972;2023-12-20T09:50:01;59075.00;;;-149.39;100.00
41040;BME280;48586;50.122;18.972;2023-12-20T09:53:15;59075.00;;;-149.39;100.00
41040;BME280;48586;50.122;18.972;2023-12-20T09:56:23;59075.00;;;-149.39;100.00
41040;BME280;48586;50.122;18.972;2023-12-20T09:59:31;59075.00;;;-149.39;100.00
41040;BME280;48586;50.122;18.972;2023-12-20T10:02:39;59075.00;;;-149.39;100.00
41040;BME280;48586;50.122;18.972;2023-12-20T10:05:54;59075.00;;;-149.39;100.00
41040;BME280;48586;50.122;18.972;2023-12-20T10:09:04;59075.00;;;-149.39;100.00
41040;BME280;48586;50.122;18.972;2023-12-20T10:12:09;59075.00;;;-149.39;100.00
41040;BME280;48586;50.122;18.972;2023-12-20T10:15:14;59075.00;;;-149.39;100.00
41040;BME280;48586;50.122;18.972;2023-12-20T10:18:20;59075.00;;;-149.39;100.00
41040;BME280;48586;50.122;18.972;2023-12-20T10:21:26;59075.00;;;-149.39;100.00
41040;BME280;48586;50.122;18.972;2023-12-20T10:24:34;59075.00;;;-149.39;100.00
41040;BME280;48586;50.122;18.972;2023-12-20T10:27:38;59075.00;;;-149.39;100.00
41040;BME280;48586;50.122;18.972;2023-12-20T10:30:44;59075.00;;;-149.39;100.00
41040;BME280;48586;50.122;18.972;2023-12-20T10:33:48;59075.00;;;-149.39;100.00
41040;BME280;48586;50.122;18.972;2023-12-20T10:36:54;59075.00;;;-149.39;100.00
41040;BME280;48586;50.122;18.972;2023-12-20T10:40:03;59075.00;;;-149.39;100.00
41040;BME280;48586;50.122;18.972;2023-12-20T10:43:11;59075.00;;;-149.39;100.00
41040;BME280;48586;50.122;18.972;2023-12-20T10:46:16;59075.00;;;-149.39;100.00
41040;BME280;48586;50.122;18.972;2023-12-20T10:49:24;59075.00;;;-149.39;100.00
41040;BME280;48586;50.122;18.972;2023-12-20T10:52:32;59075.00;;;-149.39;100.00
41040;BME280;48586;50.122;18.972;2023-12-20T10:55:44;59075.00;;;-149.39;100.00
41040;BME280;48586;50.122;18.972;2023-12-20T10:58:50;59075.00;;;-149.39;100.00
41040;BME280;48586;50.122;18.972;2023-12-20T11:01:56;59075.00;;;-149.39;100.00
41040;BME280;48586;50.122;18.972;2023-12-20T11:05:10;59075.00;;;-149.39;100.00
41040;BME280;48586;50.122;18.972;2023-12-20T11:08:33;59075.00;;;-149.39;100.00
41040;BME280;48586;50.122;18.972;2023-12-20T11:11:56;59075.00;;;-149.39;100.00
41040;BME280;48586;50.122;18.972;2023-12-20T11:15:08;59075.00;;;-149.39;100.00
41040;BME280;48586;50.122;18.972;2023-12-20T11:18:15;59075.00;;;-149.39;100.00
41040;BME280;48586;50.122;18.972;2023-12-20T11:21:21;59075.00;;;-149.39;100.00
41040;BME280;48586;50.122;18.972;2023-12-20T11:24:26;59075.00;;;-149.39;100.00
41040;BME280;48586;50.122;18.972;2023-12-20T11:27:35;59075.00;;;-149.39;100.00
41040;BME280;48586;50.122;18.972;2023-12-20T11:30:46;59075.00;;;-149.39;100.00
41040;BME280;48586;50.122;18.972;2023-12-20T11:34:13;59075.00;;;-149.39;100.00
41040;BME280;48586;50.122;18.972;2023-12-20T11:37:20;59075.00;;;-149.39;100.00
41040;BME280;48586;50.122;18.972;2023-12-20T11:40:26;59075.00;;;-149.39;100.00
41040;BME280;48586;50.122;18.972;2023-12-20T11:43:36;59075.00;;;-149.39;100.00
41040;BME280;48586;50.122;18.972;2023-12-20T11:46:41;59075.00;;;-149.39;100.00
41040;BME280;48586;50.122;18.972;2023-12-20T11:49:47;59075.00;;;-149.39;100.00
41040;BME280;48586;50.122;18.972;2023-12-20T11:52:53;59075.00;;;-149.39;100.00
41040;BME280;48586;50.122;18.972;2023-12-20T11:55:59;59075.00;;;-149.39;100.00
41040;BME280;48586;50.122;18.972;2023-12-20T11:59:08;59075.00;;;-149.39;100.00
41040;BME280;48586;50.122;18.972;2023-12-20T12:02:13;59075.00;;;-149.39;100.00
41040;BME280;48586;50.122;18.972;2023-12-20T12:05:18;59075.00;;;-149.39;100.00
41040;BME280;48586;50.122;18.972;2023-12-20T12:08:23;59075.00;;;-149.39;100.00
41040;BME280;48586;50.122;18.972;2023-12-20T12:11:28;59075.00;;;-149.39;100.00
41040;BME280;48586;50.122;18.972;2023-12-20T12:14:35;59075.00;;;-149.39;100.00
41040;BME280;48586;50.122;18.972;2023-12-20T12:17:42;59075.00;;;-149.39;100.00
41040;BME280;48586;50.122;18.972;2023-12-20T12:20:47;59075.00;;;-149.39;100.00
41040;BME280;48586;50.122;18.972;2023-12-20T12:23:52;59075.00;;;-149.39;100.00
41040;BME280;48586;50.122;18.972;2023-12-20T12:26:57;59075.00;;;-149.39;100.00
41040;BME280;48586;50.122;18.972;2023-12-20T12:30:06;59075.00;;;-149.39;100.00
41040;BME280;48586;50.122;18.972;2023-12-20T12:33:13;59075.00;;;-149.39;100.00
41040;BME280;48586;50.122;18.972;2023-12-20T12:36:19;59075.00;;;-149.39;100.00
41040;BME280;48586;50.122;18.972;2023-12-20T12:39:24;59075.00;;;-149.39;100.00
41040;BME280;48586;50.122;18.972;2023-12-20T12:42:31;59075.00;;;-149.39;100.00
41040;BME280;48586;50.122;18.972;2023-12-20T12:45:38;59075.00;;;-149.39;100.00
41040;BME280;48586;50.122;18.972;2023-12-20T12:48:44;59075.00;;;-149.39;100.00
41040;BME280;48586;50.122;18.972;2023-12-20T12:51:48;59075.00;;;-149.39;100.00
41040;BME280;48586;50.122;18.972;2023-12-20T12:54:54;59075.00;;;-149.39;100.00
41040;BME280;48586;50.122;18.972;2023-12-20T12:57:58;59075.00;;;-149.39;100.00
41040;BME280;48586;50.122;18.972;2023-12-20T13:01:06;59075.00;;;-149.39;100.00
41040;BME280;48586;50.122;18.972;2023-12-20T13:04:11;59075.00;;;-149.39;100.00
41040;BME280;48586;50.122;18.972;2023-12-20T13:07:16;59075.00;;;-149.39;100.00
41040;BME280;48586;50.122;18.972;2023-12-20T13:10:20;59075.00;;;-149.39;100.00
41040;BME280;48586;50.122;18.972;2023-12-20T13:13:26;59075.00;;;-149.39;100.00
41040;BME280;48586;50.122;18.972;2023-12-20T13:16:33;59075.00;;;-149.39;100.00
41040;BME280;48586;50.122;18.972;2023-12-20T13:19:39;59075.00;;;-149.39;100.00
41040;BME280;48586;50.122;18.972;2023-12-20T13:22:43;59075.00;;;-149.39;100.00
41040;BME280;48586;50.122;18.972;2023-12-20T13:25:48;59075.00;;;-149.39;100.00
41040;BME280;48586;50.122;18.972;2023-12-20T13:28:53;59075.00;;;-149.39;100.00
41040;BME280;48586;50.122;18.972;2023-12-20T13:32:01;59075.00;;;-149.39;100.00
41040;BME280;48586;50.122;18.972;2023-12-20T13:35:07;59075.00;;;-149.39;100.00
41040;BME280;48586;50.122;18.972;2023-12-20T13:38:12;59075.00;;;-149.39;100.00
41040;BME280;48586;50.122;18.972;2023-12-20T13:41:17;59075.00;;;-149.39;100.00
41040;BME280;48586;50.122;18.972;2023-12-20T13:44:22;59075.00;;;-149.39;100.00
41040;BME280;48586;50.122;18.972;2023-12-20T13:47:30;59075.00;;;-149.39;100.00
41040;BME280;48586;50.122;18.972;2023-12-20T13:50:35;59075.00;;;-149.39;100.00
41040;BME280;48586;50.122;18.972;2023-12-20T13:53:39;59075.00;;;-149.39;100.00
41040;BME280;48586;50.122;18.972;2023-12-20T13:56:45;59075.00;;;-149.39;100.00
41040;BME280;48586;50.122;18.972;2023-12-20T13:59:49;59075.00;;;-149.39;100.00
41040;BME280;48586;50.122;18.972;2023-12-20T14:03:00;59075.00;;;-149.39;100.00
41040;BME280;48586;50.122;18.972;2023-12-20T14:06:05;59075.00;;;-149.39;100.00
41040;BME280;48586;50.122;18.972;2023-12-20T14:09:10;59075.00;;;-149.39;100.00
41040;BME280;48586;50.122;18.972;2023-12-20T14:12:15;59075.00;;;-149.39;100.00
41040;BME280;48586;50.122;18.972;2023-12-20T14:15:22;59075.00;;;-149.39;100.00
41040;BME280;48586;50.122;18.972;2023-12-20T14:18:29;59075.00;;;-149.39;100.00
41040;BME280;48586;50.122;18.972;2023-12-20T14:21:35;59075.00;;;-149.39;100.00
41040;BME280;48586;50.122;18.972;2023-12-20T14:24:39;59075.00;;;-149.39;100.00
41040;BME280;48586;50.122;18.972;2023-12-20T14:27:44;59075.00;;;-149.39;100.00
41040;BME280;48586;50.122;18.972;2023-12-20T14:30:49;59075.00;;;-149.39;100.00
41040;BME280;48586;50.122;18.972;2023-12-20T14:33:57;59075.00;;;-149.39;100.00
41040;BME280;48586;50.122;18.972;2023-12-20T14:37:04;59075.00;;;-149.39;100.00
41040;BME280;48586;50.122;18.972;2023-12-20T14:40:11;59075.00;;;-149.39;100.00
41040;BME280;48586;50.122;18.972;2023-12-20T14:43:18;59075.00;;;-149.39;100.00
41040;BME280;48586;50.122;18.972;2023-12-20T14:46:24;59075.00;;;-149.39;100.00
41040;BME280;48586;50.122;18.972;2023-12-20T14:49:32;59075.00;;;-149.39;100.00
41040;BME280;48586;50.122;18.972;2023-12-20T14:52:37;59075.00;;;-149.39;100.00
41040;BME280;48586;50.122;18.972;2023-12-20T14:55:42;59075.00;;;-149.39;100.00
41040;BME280;48586;50.122;18.972;2023-12-20T14:58:48;59075.00;;;-149.39;100.00
41040;BME280;48586;50.122;18.972;2023-12-20T15:01:52;59075.00;;;-149.39;100.00
41040;BME280;48586;50.122;18.972;2023-12-20T15:05:00;59075.00;;;-149.39;100.00
41040;BME280;48586;50.122;18.972;2023-12-20T15:08:05;59075.00;;;-149.39;100.00
41040;BME280;48586;50.122;18.972;2023-12-20T15:11:12;59075.00;;;-149.39;100.00
41040;BME280;48586;50.122;18.972;2023-12-20T15:14:17;59075.00;;;-149.39;100.00
41040;BME280;48586;50.122;18.972;2023-12-20T15:17:22;59075.00;;;-149.39;100.00
41040;BME280;48586;50.122;18.972;2023-12-20T15:20:30;59075.00;;;-149.39;100.00
41040;BME280;48586;50.122;18.972;2023-12-20T15:23:38;59075.00;;;-149.39;100.00
41040;BME280;48586;50.122;18.972;2023-12-20T15:26:46;59075.00;;;-149.39;100.00
41040;BME280;48586;50.122;18.972;2023-12-20T15:29:53;59075.00;;;-149.39;100.00
41040;BME280;48586;50.122;18.972;2023-12-20T15:32:58;59075.00;;;-149.39;100.00
41040;BME280;48586;50.122;18.972;2023-12-20T15:36:07;59075.00;;;-149.39;100.00
41040;BME280;48586;50.122;18.972;2023-12-20T15:39:12;59075.00;;;-149.39;100.00
41040;BME280;48586;50.122;18.972;2023-12-20T15:42:18;59075.00;;;-149.39;100.00
41040;BME280;48586;50.122;18.972;2023-12-20T15:45:23;59075.00;;;-149.39;100.00
41040;BME280;48586;50.122;18.972;2023-12-20T15:48:28;59075.00;;;-149.39;100.00
41040;BME280;48586;50.122;18.972;2023-12-20T15:51:35;59075.00;;;-149.39;100.00